sensor_id;sensor_type;location;lat;lon;timestamp;pressure;altitude;pressure_sealevel;temperature;humidity
76050;BME280;64967;50.234;19.224;2022-12-07T00:01:26;97968.66;;;1.24;94.20
76050;BME280;64967;50.234;19.224;2022-12-07T00:03:55;97970.63;;;1.22;94.05
76050;BME280;64967;50.234;19.224;2022-12-07T00:06:37;97966.16;;;1.22;93.41
76050;BME280;64967;50.234;19.224;2022-12-07T00:09:05;97965.63;;;1.19;93.72
76050;BME280;64967;50.234;19.224;2022-12-07T00:11:33;97965.47;;;1.20;94.12
76050;BME280;64967;50.234;19.224;2022-12-07T00:14:02;97975.97;;;1.22;93.66
76050;BME280;64967;50.234;19.224;2022-12-07T00:16:32;97972.31;;;1.23;93.42
76050;BME280;64967;50.234;19.224;2022-12-07T00:19:00;97950.28;;;1.13;93.79
76050;BME280;64967;50.234;19.224;2022-12-07T00:21:30;97966.97;;;1.23;93.26
76050;BME280;64967;50.234;19.224;2022-12-07T00:23:57;97958.34;;;1.21;93.67
76050;BME280;64967;50.234;19.224;2022-12-07T00:26:30;97959.19;;;1.21;93.90
76050;BME280;64967;50.234;19.224;2022-12-07T00:28:59;97955.81;;;1.19;93.35
76050;BME280;64967;50.234;19.224;2022-12-07T00:31:29;97959.47;;;1.18;93.48
76050;BME280;64967;50.234;19.224;2022-12-07T00:33:57;97952.31;;;1.19;93.23
76050;BME280;64967;50.234;19.224;2022-12-07T00:36:25;97946.44;;;1.07;92.81
76050;BME280;64967;50.234;19.224;2022-12-07T00:38:58;97955.31;;;1.16;93.66
76050;BME280;64967;50.234;19.224;2022-12-07T00:41:26;97957.28;;;1.14;92.92
76050;BME280;64967;50.234;19.224;2022-12-07T00:43:54;97946.63;;;1.14;93.35
76050;BME280;64967;50.234;19.224;2022-12-07T00:46:22;97953.78;;;1.13;93.01
76050;BME280;64967;50.234;19.224;2022-12-07T00:48:51;97953.63;;;1.15;93.24
76050;BME280;64967;50.234;19.224;2022-12-07T00:51:20;97944.81;;;1.14;93.70
76050;BME280;64967;50.234;19.224;2022-12-07T00:53:48;97946.81;;;1.12;92.99
76050;BME280;64967;50.234;19.224;2022-12-07T00:56:18;97946.63;;;1.14;92.77
76050;BME280;64967;50.234;19.224;2022-12-07T00:58:57;97950.47;;;1.11;93.01
76050;BME280;64967;50.234;19.224;2022-12-07T01:01:26;97944.16;;;1.12;92.94
76050;BME280;64967;50.234;19.224;2022-12-07T01:03:54;97941.63;;;1.11;93.23
76050;BME280;64967;50.234;19.224;2022-12-07T01:06:22;97945.13;;;1.11;92.91
76050;BME280;64967;50.234;19.224;2022-12-07T01:08:49;97943.13;;;1.13;92.97
76050;BME280;64967;50.234;19.224;2022-12-07T01:11:19;97937.66;;;1.15;92.71
76050;BME280;64967;50.234;19.224;2022-12-07T01:13:49;97939.34;;;1.16;92.85
76050;BME280;64967;50.234;19.224;2022-12-07T01:16:17;97933.84;;;1.17;93.33
76050;BME280;64967;50.234;19.224;2022-12-07T01:18:49;97937.03;;;1.21;93.09
76050;BME280;64967;50.234;19.224;2022-12-07T01:21:22;97935.34;;;1.20;92.81
76050;BME280;64967;50.234;19.224;2022-12-07T01:23:50;97916.34;;;1.15;93.15
76050;BME280;64967;50.234;19.224;2022-12-07T01:26:20;97919.25;;;1.21;93.35
76050;BME280;64967;50.234;19.224;2022-12-07T01:28:47;97920.00;;;1.14;93.01
76050;BME280;64967;50.234;19.224;2022-12-07T01:31:17;97928.38;;;1.27;93.68
76050;BME280;64967;50.234;19.224;2022-12-07T01:33:48;97917.75;;;1.27;93.42
76050;BME280;64967;50.234;19.224;2022-12-07T01:36:21;97917.75;;;1.27;93.21
76050;BME280;64967;50.234;19.224;2022-12-07T01:38:50;97923.44;;;1.32;93.42
76050;BME280;64967;50.234;19.224;2022-12-07T01:41:20;97919.78;;;1.33;93.15
76050;BME280;64967;50.234;19.224;2022-12-07T01:46:33;97907.44;;;1.32;93.23
76050;BME280;64967;50.234;19.224;2022-12-07T01:49:01;97913.59;;;1.32;93.63
76050;BME280;64967;50.234;19.224;2022-12-07T01:51:29;97896.44;;;1.27;93.25
76050;BME280;64967;50.234;19.224;2022-12-07T01:53:56;97910.31;;;1.39;93.57
76050;BME280;64967;50.234;19.224;2022-12-07T01:56:26;97912.47;;;1.35;93.13
76050;BME280;64967;50.234;19.224;2022-12-07T01:58:54;97912.81;;;1.40;93.84
76050;BME280;64967;50.234;19.224;2022-12-07T02:01:23;97911.81;;;1.41;93.01
76050;BME280;64967;50.234;19.224;2022-12-07T02:03:50;97915.16;;;1.43;93.99
76050;BME280;64967;50.234;19.224;2022-12-07T02:06:21;97917.34;;;1.48;93.05
76050;BME280;64967;50.234;19.224;2022-12-07T02:08:53;97913.50;;;1.50;93.48
76050;BME280;64967;50.234;19.224;2022-12-07T02:11:40;97912.19;;;1.54;93.32
76050;BME280;64967;50.234;19.224;2022-12-07T02:14:25;97916.19;;;1.58;93.72
76050;BME280;64967;50.234;19.224;2022-12-07T02:17:37;97908.06;;;1.60;92.96
76050;BME280;64967;50.234;19.224;2022-12-07T02:21:00;97910.88;;;1.58;93.52
76050;BME280;64967;50.234;19.224;2022-12-07T02:30:30;97906.88;;;1.62;92.19
76050;BME280;64967;50.234;19.224;2022-12-07T02:33:11;97911.56;;;1.60;92.80
76050;BME280;64967;50.234;19.224;2022-12-07T02:38:36;97899.88;;;1.53;94.36
76050;BME280;64967;50.234;19.224;2022-12-07T02:43:56;97905.53;;;1.58;93.40
76050;BME280;64967;50.234;19.224;2022-12-07T02:46:41;97898.38;;;1.59;93.56
76050;BME280;64967;50.234;19.224;2022-12-07T02:49:09;97901.88;;;1.51;93.54
76050;BME280;64967;50.234;19.224;2022-12-07T02:51:45;97899.56;;;1.56;94.18
76050;BME280;64967;50.234;19.224;2022-12-07T02:54:17;97888.91;;;1.56;93.10
76050;BME280;64967;50.234;19.224;2022-12-07T02:56:51;97889.22;;;1.53;93.70
76050;BME280;64967;50.234;19.224;2022-12-07T03:02:35;97893.53;;;1.46;93.82
76050;BME280;64967;50.234;19.224;2022-12-07T03:08:06;97896.72;;;1.58;94.01
76050;BME280;64967;50.234;19.224;2022-12-07T03:13:41;97891.88;;;1.53;93.92
76050;BME280;64967;50.234;19.224;2022-12-07T03:19:11;97887.88;;;1.49;94.48
76050;BME280;64967;50.234;19.224;2022-12-07T03:21:43;97890.22;;;1.52;94.60
76050;BME280;64967;50.234;19.224;2022-12-07T03:24:15;97890.56;;;1.57;94.41
76050;BME280;64967;50.234;19.224;2022-12-07T03:27:03;97893.91;;;1.59;94.97
76050;BME280;64967;50.234;19.224;2022-12-07T03:30:22;97885.56;;;1.54;94.28
76050;BME280;64967;50.234;19.224;2022-12-07T03:32:30;97886.25;;;1.56;94.17
76050;BME280;64967;50.234;19.224;2022-12-07T03:35:33;97887.72;;;1.51;94.17
76050;BME280;64967;50.234;19.224;2022-12-07T03:38:21;97869.88;;;1.43;94.20
76050;BME280;64967;50.234;19.224;2022-12-07T03:41:06;97881.19;;;1.45;94.92
76050;BME280;64967;50.234;19.224;2022-12-07T03:43:36;97884.03;;;1.44;94.68
76050;BME280;64967;50.234;19.224;2022-12-07T03:54:14;97875.88;;;1.45;94.59
76050;BME280;64967;50.234;19.224;2022-12-07T03:56:43;97869.69;;;1.45;93.77
76050;BME280;64967;50.234;19.224;2022-12-07T03:59:11;97874.19;;;1.44;93.67
76050;BME280;64967;50.234;19.224;2022-12-07T04:01:42;97879.38;;;1.46;95.08
76050;BME280;64967;50.234;19.224;2022-12-07T04:04:10;97883.72;;;1.47;94.29
76050;BME280;64967;50.234;19.224;2022-12-07T04:06:37;97881.69;;;1.41;94.60
76050;BME280;64967;50.234;19.224;2022-12-07T04:09:04;97883.84;;;1.37;94.90
76050;BME280;64967;50.234;19.224;2022-12-07T04:11:31;97878.88;;;1.42;95.11
76050;BME280;64967;50.234;19.224;2022-12-07T04:13:58;97884.84;;;1.44;95.06
76050;BME280;64967;50.234;19.224;2022-12-07T04:16:52;97874.78;;;1.22;94.69
76050;BME280;64967;50.234;19.224;2022-12-07T04:19:22;97856.13;;;1.22;95.13
76050;BME280;64967;50.234;19.224;2022-12-07T04:21:49;97875.69;;;1.39;95.10
76050;BME280;64967;50.234;19.224;2022-12-07T04:24:16;97875.34;;;1.42;94.85
76050;BME280;64967;50.234;19.224;2022-12-07T04:26:44;97876.69;;;1.46;94.27
76050;BME280;64967;50.234;19.224;2022-12-07T04:29:13;97882.19;;;1.44;94.24
76050;BME280;64967;50.234;19.224;2022-12-07T04:31:40;97884.53;;;1.47;93.92
76050;BME280;64967;50.234;19.224;2022-12-07T04:34:08;97868.56;;;1.47;94.08
76050;BME280;64967;50.234;19.224;2022-12-07T04:36:35;97876.69;;;1.46;93.64
76050;BME280;64967;50.234;19.224;2022-12-07T04:39:03;97868.84;;;1.36;93.24
76050;BME280;64967;50.234;19.224;2022-12-07T04:41:31;97886.16;;;1.40;93.28
76050;BME280;64967;50.234;19.224;2022-12-07T04:44:03;97877.03;;;1.43;93.63
76050;BME280;64967;50.234;19.224;2022-12-07T04:46:31;97862.19;;;1.32;93.81
76050;BME280;64967;50.234;19.224;2022-12-07T04:48:59;97877.03;;;1.43;93.61
76050;BME280;64967;50.234;19.224;2022-12-07T04:51:28;97879.84;;;1.41;93.83
76050;BME280;64967;50.234;19.224;2022-12-07T04:53:56;97881.53;;;1.42;93.53
76050;BME280;64967;50.234;19.224;2022-12-07T04:56:24;97877.19;;;1.41;93.01
76050;BME280;64967;50.234;19.224;2022-12-07T04:58:53;97884.53;;;1.39;93.38
76050;BME280;64967;50.234;19.224;2022-12-07T05:01:21;97854.31;;;1.22;92.89
76050;BME280;64967;50.234;19.224;2022-12-07T05:03:49;97888.66;;;1.33;93.10
76050;BME280;64967;50.234;19.224;2022-12-07T05:06:16;97890.63;;;1.31;92.54
76050;BME280;64967;50.234;19.224;2022-12-07T05:08:43;97872.59;;;1.17;92.64
76050;BME280;64967;50.234;19.224;2022-12-07T05:11:11;97881.47;;;1.26;92.84
76050;BME280;64967;50.234;19.224;2022-12-07T05:14:02;97883.78;;;1.21;92.58
76050;BME280;64967;50.234;19.224;2022-12-07T05:16:30;97835.38;;;0.92;91.87
76050;BME280;64967;50.234;19.224;2022-12-07T05:18:57;97884.41;;;1.15;92.07
76050;BME280;64967;50.234;19.224;2022-12-07T05:21:24;97856.34;;;0.95;92.53
76050;BME280;64967;50.234;19.224;2022-12-07T05:23:51;97885.41;;;1.14;92.46
76050;BME280;64967;50.234;19.224;2022-12-07T05:26:18;97891.72;;;1.13;92.30
76050;BME280;64967;50.234;19.224;2022-12-07T05:28:50;97892.00;;;1.02;92.93
76050;BME280;64967;50.234;19.224;2022-12-07T05:31:17;97886.81;;;1.00;93.38
76050;BME280;64967;50.234;19.224;2022-12-07T05:33:44;97877.66;;;0.95;93.53
76050;BME280;64967;50.234;19.224;2022-12-07T05:36:11;97887.34;;;1.04;93.55
76050;BME280;64967;50.234;19.224;2022-12-07T05:38:38;97889.00;;;1.05;93.06
76050;BME280;64967;50.234;19.224;2022-12-07T05:41:06;97882.72;;;1.06;92.97
76050;BME280;64967;50.234;19.224;2022-12-07T05:43:33;97880.03;;;1.06;93.84
76050;BME280;64967;50.234;19.224;2022-12-07T05:46:00;97879.31;;;0.96;93.11
76050;BME280;64967;50.234;19.224;2022-12-07T05:48:27;97877.34;;;0.98;93.38
76050;BME280;64967;50.234;19.224;2022-12-07T05:50:54;97877.34;;;0.98;93.60
76050;BME280;64967;50.234;19.224;2022-12-07T05:53:21;97874.69;;;0.98;93.59
76050;BME280;64967;50.234;19.224;2022-12-07T05:55:49;97872.03;;;0.98;93.39
76050;BME280;64967;50.234;19.224;2022-12-07T05:58:15;97881.09;;;0.87;93.74
76050;BME280;64967;50.234;19.224;2022-12-07T06:01:01;97889.88;;;0.79;93.66
76050;BME280;64967;50.234;19.224;2022-12-07T06:03:28;97885.56;;;0.78;94.33
76050;BME280;64967;50.234;19.224;2022-12-07T06:05:55;97879.56;;;0.76;94.71
76050;BME280;64967;50.234;19.224;2022-12-07T06:08:22;97873.34;;;0.68;94.84
76050;BME280;64967;50.234;19.224;2022-12-07T06:10:49;97884.06;;;0.76;95.05
76050;BME280;64967;50.234;19.224;2022-12-07T06:13:39;97892.78;;;0.68;95.37
76050;BME280;64967;50.234;19.224;2022-12-07T06:16:12;97889.09;;;0.61;95.73
76050;BME280;64967;50.234;19.224;2022-12-07T06:18:39;97890.81;;;0.70;95.43
76050;BME280;64967;50.234;19.224;2022-12-07T06:21:06;97889.84;;;0.71;95.17
76050;BME280;64967;50.234;19.224;2022-12-07T06:23:33;97893.53;;;0.78;95.33
76050;BME280;64967;50.234;19.224;2022-12-07T06:26:00;97896.03;;;0.80;95.31
76050;BME280;64967;50.234;19.224;2022-12-07T06:28:27;97889.56;;;0.82;95.26
76050;BME280;64967;50.234;19.224;2022-12-07T06:30:58;97895.06;;;0.81;94.71
76050;BME280;64967;50.234;19.224;2022-12-07T06:33:26;97897.19;;;0.77;95.52
76050;BME280;64967;50.234;19.224;2022-12-07T06:35:53;97898.50;;;0.73;95.25
76050;BME280;64967;50.234;19.224;2022-12-07T06:38:21;97908.38;;;0.81;95.65
76050;BME280;64967;50.234;19.224;2022-12-07T06:40:48;97903.53;;;0.59;95.85
76050;BME280;64967;50.234;19.224;2022-12-07T06:43:15;97908.09;;;0.66;95.74
76050;BME280;64967;50.234;19.224;2022-12-07T06:45:42;97891.75;;;0.61;96.27
76050;BME280;64967;50.234;19.224;2022-12-07T06:48:09;97912.78;;;0.72;96.15
76050;BME280;64967;50.234;19.224;2022-12-07T06:50:37;97915.66;;;0.79;95.67
76050;BME280;64967;50.234;19.224;2022-12-07T06:53:04;97917.69;;;0.85;95.50
76050;BME280;64967;50.234;19.224;2022-12-07T06:55:31;97906.69;;;0.80;95.43
76050;BME280;64967;50.234;19.224;2022-12-07T06:57:58;97915.13;;;0.75;95.54
76050;BME280;64967;50.234;19.224;2022-12-07T07:00:25;97917.84;;;0.83;96.04
76050;BME280;64967;50.234;19.224;2022-12-07T07:02:52;97918.69;;;0.84;95.02
76050;BME280;64967;50.234;19.224;2022-12-07T07:05:19;97913.69;;;0.81;95.26
76050;BME280;64967;50.234;19.224;2022-12-07T07:07:49;97912.63;;;0.74;95.93
76050;BME280;64967;50.234;19.224;2022-12-07T07:10:36;97910.91;;;0.65;96.26
76050;BME280;64967;50.234;19.224;2022-12-07T07:13:04;97913.47;;;0.74;95.70
76050;BME280;64967;50.234;19.224;2022-12-07T07:15:31;97910.19;;;0.80;95.92
76050;BME280;64967;50.234;19.224;2022-12-07T07:17:59;97914.81;;;0.78;95.83
76050;BME280;64967;50.234;19.224;2022-12-07T07:20:33;97912.53;;;0.83;95.26
76050;BME280;64967;50.234;19.224;2022-12-07T07:23:00;97905.91;;;0.87;95.63
76050;BME280;64967;50.234;19.224;2022-12-07T07:25:27;97913.13;;;0.77;95.32
76050;BME280;64967;50.234;19.224;2022-12-07T07:27:55;97918.88;;;0.65;96.15
76050;BME280;64967;50.234;19.224;2022-12-07T07:30:22;97920.09;;;0.70;96.59
76050;BME280;64967;50.234;19.224;2022-12-07T07:32:49;97919.81;;;0.81;95.76
76050;BME280;64967;50.234;19.224;2022-12-07T07:35:16;97918.63;;;0.76;95.29
76050;BME280;64967;50.234;19.224;2022-12-07T07:37:43;97925.47;;;0.78;96.45
76050;BME280;64967;50.234;19.224;2022-12-07T07:40:11;97903.28;;;0.70;95.28
76050;BME280;64967;50.234;19.224;2022-12-07T07:42:39;97917.81;;;0.75;95.64
76050;BME280;64967;50.234;19.224;2022-12-07T07:45:07;97925.97;;;0.82;95.57
76050;BME280;64967;50.234;19.224;2022-12-07T07:47:34;97928.44;;;0.75;95.49
76050;BME280;64967;50.234;19.224;2022-12-07T07:50:02;97930.72;;;0.70;95.71
76050;BME280;64967;50.234;19.224;2022-12-07T07:52:30;97925.78;;;0.75;95.92
76050;BME280;64967;50.234;19.224;2022-12-07T07:54:57;97925.69;;;0.85;95.85
76050;BME280;64967;50.234;19.224;2022-12-07T07:57:24;97916.81;;;0.76;95.83
76050;BME280;64967;50.234;19.224;2022-12-07T07:59:51;97932.81;;;0.84;95.75
76050;BME280;64967;50.234;19.224;2022-12-07T08:02:20;97931.56;;;0.97;95.93
76050;BME280;64967;50.234;19.224;2022-12-07T08:04:47;97920.59;;;1.00;95.50
76050;BME280;64967;50.234;19.224;2022-12-07T08:07:14;97929.28;;;1.02;95.54
76050;BME280;64967;50.234;19.224;2022-12-07T08:09:42;97931.94;;;1.02;95.42
76050;BME280;64967;50.234;19.224;2022-12-07T08:12:09;97931.59;;;1.05;95.30
76050;BME280;64967;50.234;19.224;2022-12-07T08:14:36;97932.25;;;0.99;95.34
76050;BME280;64967;50.234;19.224;2022-12-07T08:17:03;97933.38;;;0.96;95.75
76050;BME280;64967;50.234;19.224;2022-12-07T08:19:30;97934.97;;;1.07;96.14
76050;BME280;64967;50.234;19.224;2022-12-07T08:21:57;97917.31;;;1.06;95.44
76050;BME280;64967;50.234;19.224;2022-12-07T08:24:24;97938.69;;;1.22;94.02
76050;BME280;64967;50.234;19.224;2022-12-07T08:26:51;97940.38;;;1.31;95.56
76050;BME280;64967;50.234;19.224;2022-12-07T08:29:18;97931.44;;;1.40;94.91
76050;BME280;64967;50.234;19.224;2022-12-07T08:31:46;97918.09;;;1.32;93.67
76050;BME280;64967;50.234;19.224;2022-12-07T08:34:13;97942.63;;;1.44;94.57
76050;BME280;64967;50.234;19.224;2022-12-07T08:36:40;97941.41;;;1.30;94.91
76050;BME280;64967;50.234;19.224;2022-12-07T08:39:07;97946.28;;;1.43;94.48
76050;BME280;64967;50.234;19.224;2022-12-07T08:41:54;97954.03;;;1.28;94.08
76050;BME280;64967;50.234;19.224;2022-12-07T08:44:21;97957.75;;;1.35;94.76
76050;BME280;64967;50.234;19.224;2022-12-07T08:46:57;97949.94;;;1.42;94.57
76050;BME280;64967;50.234;19.224;2022-12-07T08:49:33;97963.19;;;1.25;94.27
76050;BME280;64967;50.234;19.224;2022-12-07T08:52:04;97954.44;;;1.41;94.96
76050;BME280;64967;50.234;19.224;2022-12-07T08:54:34;97940.44;;;1.39;94.08
76050;BME280;64967;50.234;19.224;2022-12-07T08:57:02;97936.75;;;1.32;94.28
76050;BME280;64967;50.234;19.224;2022-12-07T08:59:30;97953.63;;;1.49;94.41
76050;BME280;64967;50.234;19.224;2022-12-07T09:01:57;97958.13;;;1.48;94.98
76050;BME280;64967;50.234;19.224;2022-12-07T09:04:24;97959.50;;;1.60;95.25
76050;BME280;64967;50.234;19.224;2022-12-07T09:06:52;97961.00;;;1.63;94.05
76050;BME280;64967;50.234;19.224;2022-12-07T09:09:20;97951.19;;;1.63;93.94
76050;BME280;64967;50.234;19.224;2022-12-07T09:11:47;97959.88;;;1.65;92.91
76050;BME280;64967;50.234;19.224;2022-12-07T09:14:14;97961.50;;;1.58;94.15
76050;BME280;64967;50.234;19.224;2022-12-07T09:16:41;97959.16;;;1.55;94.20
76050;BME280;64967;50.234;19.224;2022-12-07T09:19:08;97951.38;;;1.62;94.04
76050;BME280;64967;50.234;19.224;2022-12-07T09:21:35;97952.13;;;1.46;94.36
76050;BME280;64967;50.234;19.224;2022-12-07T09:24:02;97942.84;;;1.58;94.14
76050;BME280;64967;50.234;19.224;2022-12-07T09:26:29;97953.69;;;1.65;93.79
76050;BME280;64967;50.234;19.224;2022-12-07T09:28:56;97936.19;;;1.62;93.47
76050;BME280;64967;50.234;19.224;2022-12-07T09:31:23;97939.22;;;1.67;93.71
76050;BME280;64967;50.234;19.224;2022-12-07T09:33:58;97935.22;;;1.71;93.05
76050;BME280;64967;50.234;19.224;2022-12-07T09:36:28;97930.44;;;1.83;93.33
76050;BME280;64967;50.234;19.224;2022-12-07T09:38:55;97927.63;;;1.85;92.46
76050;BME280;64967;50.234;19.224;2022-12-07T09:41:24;97933.47;;;1.96;92.92
76050;BME280;64967;50.234;19.224;2022-12-07T09:43:53;97917.97;;;1.84;92.52
76050;BME280;64967;50.234;19.224;2022-12-07T09:46:24;97933.31;;;1.98;91.69
76050;BME280;64967;50.234;19.224;2022-12-07T09:48:52;97932.00;;;2.02;92.40
76050;BME280;64967;50.234;19.224;2022-12-07T09:51:21;97921.81;;;2.05;92.47
76050;BME280;64967;50.234;19.224;2022-12-07T09:53:53;97919.66;;;2.09;92.52
76050;BME280;64967;50.234;19.224;2022-12-07T09:56:21;97916.34;;;2.15;92.07
76050;BME280;64967;50.234;19.224;2022-12-07T09:58:49;97909.34;;;2.14;91.60
76050;BME280;64967;50.234;19.224;2022-12-07T10:01:20;97909.34;;;2.22;92.40
76050;BME280;64967;50.234;19.224;2022-12-07T10:04:12;97911.69;;;2.25;92.51
76050;BME280;64967;50.234;19.224;2022-12-07T10:06:41;97910.16;;;2.31;92.02
76050;BME280;64967;50.234;19.224;2022-12-07T10:09:13;97906.84;;;2.37;91.82
76050;BME280;64967;50.234;19.224;2022-12-07T10:12:04;97893.34;;;2.46;91.71
76050;BME280;64967;50.234;19.224;2022-12-07T10:14:35;97898.00;;;2.52;91.64
76050;BME280;64967;50.234;19.224;2022-12-07T10:17:37;97882.84;;;2.61;90.89
76050;BME280;64967;50.234;19.224;2022-12-07T10:20:26;97883.97;;;2.66;91.24
76050;BME280;64967;50.234;19.224;2022-12-07T10:22:58;97876.97;;;2.74;90.61
76050;BME280;64967;50.234;19.224;2022-12-07T10:25:28;97878.66;;;2.75;90.31
76050;BME280;64967;50.234;19.224;2022-12-07T10:33:35;97856.06;;;3.01;90.30
76050;BME280;64967;50.234;19.224;2022-12-07T10:36:22;97865.38;;;2.97;90.61
76050;BME280;64967;50.234;19.224;2022-12-07T10:41:28;97858.19;;;3.14;89.53
76050;BME280;64967;50.234;19.224;2022-12-07T10:43:57;97857.63;;;3.27;90.09
76050;BME280;64967;50.234;19.224;2022-12-07T10:46:47;97850.09;;;3.30;89.26
76050;BME280;64967;50.234;19.224;2022-12-07T10:52:09;97860.41;;;3.33;88.09
76050;BME280;64967;50.234;19.224;2022-12-07T11:05:33;97853.75;;;3.37;88.09
76050;BME280;64967;50.234;19.224;2022-12-07T11:08:17;97849.25;;;3.30;88.58
76050;BME280;64967;50.234;19.224;2022-12-07T11:13:27;97838.28;;;3.17;87.22
76050;BME280;64967;50.234;19.224;2022-12-07T11:16:04;97850.72;;;3.01;86.88
76050;BME280;64967;50.234;19.224;2022-12-07T11:18:44;97843.50;;;3.02;88.37
76050;BME280;64967;50.234;19.224;2022-12-07T11:21:38;97842.88;;;3.00;87.86
76050;BME280;64967;50.234;19.224;2022-12-07T11:24:19;97818.03;;;2.91;87.58
76050;BME280;64967;50.234;19.224;2022-12-07T11:32:44;97827.28;;;3.20;87.66
76050;BME280;64967;50.234;19.224;2022-12-07T11:38:15;97825.94;;;3.15;87.65
76050;BME280;64967;50.234;19.224;2022-12-07T11:40:49;97821.25;;;3.18;86.48
76050;BME280;64967;50.234;19.224;2022-12-07T11:43:27;97816.22;;;3.23;86.39
76050;BME280;64967;50.234;19.224;2022-12-07T11:46:03;97818.44;;;3.19;85.78
76050;BME280;64967;50.234;19.224;2022-12-07T11:48:55;97809.06;;;3.23;86.42
76050;BME280;64967;50.234;19.224;2022-12-07T11:51:25;97807.22;;;3.15;86.91
76050;BME280;64967;50.234;19.224;2022-12-07T11:54:03;97797.38;;;3.16;86.16
76050;BME280;64967;50.234;19.224;2022-12-07T11:56:34;97784.59;;;3.03;85.48
76050;BME280;64967;50.234;19.224;2022-12-07T12:04:45;97810.44;;;3.11;86.05
76050;BME280;64967;50.234;19.224;2022-12-07T12:07:19;97809.78;;;3.09;86.05
76050;BME280;64967;50.234;19.224;2022-12-07T12:19:36;97819.34;;;3.34;83.73
76050;BME280;64967;50.234;19.224;2022-12-07T12:22:17;97816.34;;;3.29;83.09
76050;BME280;64967;50.234;19.224;2022-12-07T12:24:50;97799.72;;;3.19;83.47
76050;BME280;64967;50.234;19.224;2022-12-07T12:27:39;97814.00;;;3.34;83.80
76050;BME280;64967;50.234;19.224;2022-12-07T12:33:14;97814.34;;;3.31;83.85
76050;BME280;64967;50.234;19.224;2022-12-07T12:35:43;97810.38;;;3.27;83.36
76050;BME280;64967;50.234;19.224;2022-12-07T12:38:33;97810.41;;;3.19;82.23
76050;BME280;64967;50.234;19.224;2022-12-07T12:46:56;97799.84;;;3.26;84.08
76050;BME280;64967;50.234;19.224;2022-12-07T12:49:34;97796.69;;;3.22;82.55
76050;BME280;64967;50.234;19.224;2022-12-07T12:54:59;97803.41;;;3.18;82.94
76050;BME280;64967;50.234;19.224;2022-12-07T12:57:33;97800.06;;;3.16;82.93
76050;BME280;64967;50.234;19.224;2022-12-07T13:00:22;97786.06;;;3.14;81.72
76050;BME280;64967;50.234;19.224;2022-12-07T13:02:51;97785.69;;;3.17;80.88
76050;BME280;64967;50.234;19.224;2022-12-07T13:05:20;97787.84;;;3.22;82.01
76050;BME280;64967;50.234;19.224;2022-12-07T13:10:40;97792.03;;;3.24;81.76
76050;BME280;64967;50.234;19.224;2022-12-07T13:15:48;97777.31;;;3.28;82.05
76050;BME280;64967;50.234;19.224;2022-12-07T13:34:42;97797.75;;;3.13;80.84
76050;BME280;64967;50.234;19.224;2022-12-07T13:39:47;97798.44;;;3.07;80.69
76050;BME280;64967;50.234;19.224;2022-12-07T13:42:22;97804.28;;;3.02;81.05
76050;BME280;64967;50.234;19.224;2022-12-07T13:44:51;97809.47;;;3.04;80.32
76050;BME280;64967;50.234;19.224;2022-12-07T13:47:43;97796.94;;;3.04;80.41
76050;BME280;64967;50.234;19.224;2022-12-07T13:50:26;97795.44;;;3.02;80.10
76050;BME280;64967;50.234;19.224;2022-12-07T13:52:59;97796.13;;;3.04;80.47
76050;BME280;64967;50.234;19.224;2022-12-07T13:55:27;97798.13;;;3.02;81.30
76050;BME280;64967;50.234;19.224;2022-12-07T13:57:55;97801.94;;;3.07;81.23
76050;BME280;64967;50.234;19.224;2022-12-07T14:00:25;97809.63;;;3.02;80.42
76050;BME280;64967;50.234;19.224;2022-12-07T14:05:31;97814.31;;;3.00;79.53
76050;BME280;64967;50.234;19.224;2022-12-07T14:08:00;97809.16;;;2.99;78.32
76050;BME280;64967;50.234;19.224;2022-12-07T14:10:32;97812.81;;;2.98;78.89
76050;BME280;64967;50.234;19.224;2022-12-07T14:13:01;97812.16;;;2.96;78.23
76050;BME280;64967;50.234;19.224;2022-12-07T14:15:33;97817.50;;;2.96;76.66
76050;BME280;64967;50.234;19.224;2022-12-07T14:18:02;97812.50;;;2.93;76.01
76050;BME280;64967;50.234;19.224;2022-12-07T14:20:36;97813.34;;;2.93;75.46
76050;BME280;64967;50.234;19.224;2022-12-07T14:23:05;97813.69;;;2.90;74.96
76050;BME280;64967;50.234;19.224;2022-12-07T14:25:49;97812.22;;;2.88;74.77
76050;BME280;64967;50.234;19.224;2022-12-07T14:28:33;97821.84;;;2.89;74.49
76050;BME280;64967;50.234;19.224;2022-12-07T14:31:01;97822.22;;;2.86;74.95
76050;BME280;64967;50.234;19.224;2022-12-07T14:33:28;97826.88;;;2.84;73.57
76050;BME280;64967;50.234;19.224;2022-12-07T14:35:57;97834.88;;;2.84;74.97
76050;BME280;64967;50.234;19.224;2022-12-07T14:38:25;97830.91;;;2.80;75.01
76050;BME280;64967;50.234;19.224;2022-12-07T14:40:53;97834.78;;;2.69;74.99
76050;BME280;64967;50.234;19.224;2022-12-07T14:43:41;97828.94;;;2.74;75.03
76050;BME280;64967;50.234;19.224;2022-12-07T14:46:28;97833.28;;;2.75;74.43
76050;BME280;64967;50.234;19.224;2022-12-07T14:48:55;97843.63;;;2.69;75.52
76050;BME280;64967;50.234;19.224;2022-12-07T14:51:43;97823.16;;;2.46;76.09
76050;BME280;64967;50.234;19.224;2022-12-07T14:54:31;97832.44;;;2.58;76.10
76050;BME280;64967;50.234;19.224;2022-12-07T14:56:59;97847.31;;;2.60;76.39
76050;BME280;64967;50.234;19.224;2022-12-07T14:59:26;97850.66;;;2.46;76.27
76050;BME280;64967;50.234;19.224;2022-12-07T15:01:53;97853.66;;;2.51;77.47
76050;BME280;64967;50.234;19.224;2022-12-07T15:04:20;97852.97;;;2.57;76.40
76050;BME280;64967;50.234;19.224;2022-12-07T15:07:01;97843.63;;;2.53;76.11
76050;BME280;64967;50.234;19.224;2022-12-07T15:09:29;97854.31;;;2.53;76.31
76050;BME280;64967;50.234;19.224;2022-12-07T15:11:56;97851.47;;;2.55;76.00
76050;BME280;64967;50.234;19.224;2022-12-07T15:14:23;97845.63;;;2.59;75.45
76050;BME280;64967;50.234;19.224;2022-12-07T15:16:50;97864.50;;;2.50;75.33
76050;BME280;64967;50.234;19.224;2022-12-07T15:19:35;97856.31;;;2.51;76.50
76050;BME280;64967;50.234;19.224;2022-12-07T15:22:02;97862.31;;;2.53;75.59
76050;BME280;64967;50.234;19.224;2022-12-07T15:24:29;97864.31;;;2.59;75.65
76050;BME280;64967;50.234;19.224;2022-12-07T15:26:56;97854.97;;;2.55;77.04